createdAt,value
2022-09-25T00:01:15.502Z,36.95
2022-09-25T00:03:42.662Z,35.08
2022-09-25T00:06:14.003Z,34.38
2022-09-25T00:08:41.620Z,36.63
2022-09-25T00:11:15.256Z,38.20
2022-09-25T00:13:43.303Z,33.25
2022-09-25T00:16:14.026Z,44.90
2022-09-25T00:18:59.873Z,33.53
2022-09-25T00:24:05.864Z,31.65
2022-09-25T00:26:36.774Z,38.13
2022-09-25T00:29:05.335Z,32.88
2022-09-25T00:31:33.250Z,33.15
2022-09-25T00:34:03.378Z,34.20
2022-09-25T00:36:31.786Z,30.33
2022-09-25T00:38:59.379Z,40.78
2022-09-25T00:41:29.334Z,35.75
2022-09-25T00:43:57.954Z,35.65
2022-09-25T00:46:28.685Z,38.10
2022-09-25T00:48:59.918Z,34.47
2022-09-25T00:51:35.239Z,35.08
2022-09-25T00:56:41.630Z,35.15
2022-09-25T00:59:13.468Z,35.60
2022-09-25T01:01:40.885Z,38.20
2022-09-25T01:04:09.461Z,37.58
2022-09-25T01:06:37.288Z,42.25
2022-09-25T01:09:04.983Z,43.88
2022-09-25T01:11:32.573Z,46.38
2022-09-25T01:14:03.161Z,45.22
2022-09-25T01:16:43.472Z,43.38
2022-09-25T01:19:19.562Z,35.58
2022-09-25T01:22:26.807Z,41.03
2022-09-25T01:25:16.362Z,38.63
2022-09-25T01:27:58.873Z,42.70
2022-09-25T01:30:26.073Z,37.42
2022-09-25T01:33:11.569Z,43.60
2022-09-25T01:36:08.198Z,51.33
2022-09-25T01:38:45.782Z,38.38
2022-09-25T01:41:29.841Z,44.75
2022-09-25T01:44:18.470Z,47.97
2022-09-25T01:46:50.373Z,48.92
2022-09-25T01:49:28.674Z,56.40
2022-09-25T01:51:58.081Z,44.90
2022-09-25T01:54:33.032Z,48.20
2022-09-25T01:57:08.227Z,50.67
2022-09-25T01:59:50.476Z,52.08
2022-09-25T02:02:23.284Z,56.13
2022-09-25T02:05:00.606Z,59.00
2022-09-25T02:07:32.314Z,47.92
2022-09-25T02:10:08.722Z,49.38
2022-09-25T02:12:44.103Z,47.10
2022-09-25T02:18:17.908Z,46.35
2022-09-25T02:20:50.596Z,52.35
2022-09-25T02:23:30.337Z,54.53
2022-09-25T02:26:15.245Z,58.58
2022-09-25T02:28:44.990Z,75.47
2022-09-25T02:31:14.130Z,60.85
2022-09-25T02:33:41.683Z,64.43
2022-09-25T02:36:17.692Z,68.55
2022-09-25T02:38:45.303Z,63.00
2022-09-25T02:41:32.572Z,69.47
2022-09-25T02:44:27.076Z,73.68
2022-09-25T02:47:45.062Z,69.53
2022-09-25T02:50:28.185Z,73.70
2022-09-25T02:53:22.078Z,70.70
2022-09-25T02:56:00.877Z,87.40
2022-09-25T02:58:39.862Z,71.90
2022-09-25T03:01:10.837Z,68.55
2022-09-25T03:03:39.749Z,66.35
2022-09-25T03:06:09.064Z,62.00
2022-09-25T03:08:39.860Z,75.05
2022-09-25T03:11:09.439Z,99.35
2022-09-25T03:13:38.019Z,72.72
2022-09-25T03:16:39.714Z,64.38
2022-09-25T03:19:07.716Z,74.95
2022-09-25T03:21:34.910Z,101.93
2022-09-25T03:24:02.441Z,63.08
2022-09-25T03:26:30.528Z,85.28
2022-09-25T03:29:02.782Z,91.35
2022-09-25T03:31:31.134Z,71.75
2022-09-25T03:33:59.112Z,72.68
2022-09-25T03:36:29.370Z,79.28
2022-09-25T03:39:00.910Z,91.28
2022-09-25T03:41:31.178Z,69.65
2022-09-25T03:43:59.210Z,92.25
2022-09-25T03:46:28.914Z,91.85
2022-09-25T03:48:57.415Z,73.05
2022-09-25T03:51:26.318Z,91.53
2022-09-25T03:53:54.824Z,76.13
2022-09-25T03:56:25.470Z,75.70
2022-09-25T03:58:54.731Z,78.35
2022-09-25T04:01:23.516Z,86.78
2022-09-25T04:03:51.425Z,74.80
2022-09-25T04:06:21.225Z,106.97
2022-09-25T04:08:49.487Z,90.10
2022-09-25T04:11:18.775Z,58.33
2022-09-25T04:13:46.682Z,90.00
2022-09-25T04:16:16.441Z,61.80
2022-09-25T04:18:44.367Z,62.00
2022-09-25T04:21:14.461Z,108.97
2022-09-25T04:23:42.303Z,106.93
2022-09-25T04:26:10.178Z,64.65
2022-09-25T04:28:37.824Z,72.45
2022-09-25T04:31:06.081Z,88.57
2022-09-25T04:33:48.457Z,75.82
2022-09-25T04:36:21.598Z,85.75
2022-09-25T04:38:49.125Z,65.57
2022-09-25T04:41:18.046Z,81.38
2022-09-25T04:43:45.618Z,87.30
2022-09-25T04:46:20.125Z,76.88
2022-09-25T04:48:49.426Z,101.95
2022-09-25T04:51:16.703Z,106.70
2022-09-25T04:53:44.046Z,84.75
2022-09-25T04:56:15.407Z,97.05
2022-09-25T04:58:49.990Z,74.13
2022-09-25T05:01:19.756Z,87.75
2022-09-25T05:03:51.543Z,90.50
2022-09-25T05:06:18.944Z,75.25
2022-09-25T05:08:53.350Z,67.70
2022-09-25T05:11:21.727Z,76.45
2022-09-25T05:13:53.338Z,74.00
2022-09-25T05:16:21.011Z,64.90
2022-09-25T05:18:48.591Z,59.10
2022-09-25T05:21:15.823Z,64.50
2022-09-25T05:23:43.007Z,70.97
2022-09-25T05:26:11.351Z,66.60
2022-09-25T05:28:38.784Z,55.40
2022-09-25T05:31:06.807Z,62.75
2022-09-25T05:33:35.527Z,71.13
2022-09-25T05:36:07.569Z,62.00
2022-09-25T05:38:36.422Z,60.90
2022-09-25T05:41:05.488Z,54.92
2022-09-25T05:43:33.608Z,61.75
2022-09-25T05:46:01.280Z,50.92
2022-09-25T05:48:28.615Z,57.60
2022-09-25T05:50:57.371Z,62.47
2022-09-25T05:53:25.963Z,53.63
2022-09-25T05:56:01.121Z,55.00
2022-09-25T05:58:30.197Z,45.08
2022-09-25T06:01:02.354Z,47.53
2022-09-25T06:03:30.064Z,51.95
2022-09-25T06:06:01.412Z,46.42
2022-09-25T06:08:32.257Z,42.08
2022-09-25T06:11:01.158Z,50.97
2022-09-25T06:13:29.438Z,39.28
2022-09-25T06:15:57.453Z,46.45
2022-09-25T06:18:25.997Z,46.53
2022-09-25T06:21:01.125Z,48.58
2022-09-25T06:23:28.437Z,44.83
2022-09-25T06:25:56.666Z,57.20
2022-09-25T06:28:23.703Z,50.45
2022-09-25T06:30:51.122Z,48.55
2022-09-25T06:33:18.202Z,49.25
2022-09-25T06:35:48.037Z,44.28
2022-09-25T06:38:16.974Z,48.38
2022-09-25T06:40:45.303Z,46.22
2022-09-25T06:43:16.765Z,49.75
2022-09-25T06:45:44.349Z,44.75
2022-09-25T06:48:16.633Z,50.95
2022-09-25T06:50:50.534Z,46.13
2022-09-25T06:53:20.092Z,44.53
2022-09-25T06:55:47.648Z,53.80
2022-09-25T06:58:18.156Z,46.10
2022-09-25T07:00:49.966Z,38.53
2022-09-25T07:03:39.126Z,55.13
2022-09-25T07:06:08.510Z,48.13
2022-09-25T07:08:36.705Z,36.70
2022-09-25T07:11:04.463Z,41.88
2022-09-25T07:13:35.284Z,37.63
2022-09-25T07:16:06.508Z,37.28
2022-09-25T07:18:34.433Z,38.22
2022-09-25T07:21:03.988Z,34.05
2022-09-25T07:23:31.780Z,40.95
2022-09-25T07:26:09.289Z,33.60
2022-09-25T07:28:38.326Z,37.47
2022-09-25T07:31:16.766Z,39.30
2022-09-25T07:33:44.316Z,40.53
2022-09-25T07:36:12.324Z,35.15
2022-09-25T07:38:40.059Z,34.85
2022-09-25T07:41:10.919Z,38.67
2022-09-25T07:43:39.120Z,42.63
2022-09-25T07:46:07.282Z,43.05
2022-09-25T07:48:34.638Z,32.85
2022-09-25T07:51:06.225Z,32.28
2022-09-25T07:53:33.425Z,28.83
2022-09-25T07:56:06.508Z,26.08
2022-09-25T07:58:35.798Z,27.02
2022-09-25T08:01:05.226Z,31.63
2022-09-25T08:03:32.772Z,30.98
2022-09-25T08:06:05.779Z,29.52
2022-09-25T08:08:34.898Z,25.25
2022-09-25T08:11:07.471Z,24.95
2022-09-25T08:13:35.842Z,35.25
2022-09-25T08:16:04.042Z,29.90
2022-09-25T08:18:32.976Z,31.05
2022-09-25T08:21:06.060Z,23.40
2022-09-25T08:23:33.520Z,30.70
2022-09-25T08:26:02.154Z,30.30
2022-09-25T08:28:30.812Z,26.55
2022-09-25T08:31:00.611Z,29.42
2022-09-25T08:33:28.114Z,33.35
2022-09-25T08:36:00.725Z,28.52
2022-09-25T08:38:29.126Z,31.35
2022-09-25T08:41:24.772Z,26.65
2022-09-25T08:43:52.212Z,29.02
2022-09-25T08:46:44.258Z,26.15
2022-09-25T08:49:14.655Z,27.52
2022-09-25T08:51:44.574Z,24.13
2022-09-25T08:54:26.984Z,27.65
2022-09-25T08:57:04.537Z,25.98
2022-09-25T08:59:38.981Z,28.08
2022-09-25T09:02:20.054Z,25.20
2022-09-25T09:04:53.991Z,26.23
2022-09-25T09:07:39.607Z,27.75
2022-09-25T09:10:34.639Z,23.38
2022-09-25T09:13:39.712Z,24.77
2022-09-25T09:16:30.149Z,21.60
2022-09-25T09:18:58.197Z,18.90
2022-09-25T09:21:32.111Z,21.17
2022-09-25T09:24:06.140Z,21.80
2022-09-25T09:26:55.912Z,15.85
2022-09-25T09:29:42.188Z,20.17
2022-09-25T09:32:40.754Z,21.98
2022-09-25T09:35:31.334Z,15.23
2022-09-25T09:38:30.191Z,17.30
2022-09-25T09:41:23.701Z,13.43
2022-09-25T09:43:58.045Z,12.82
2022-09-25T09:46:41.888Z,15.13
2022-09-25T09:49:35.664Z,14.77
2022-09-25T09:52:19.370Z,16.00
2022-09-25T09:55:24.300Z,22.45
2022-09-25T09:57:54.954Z,12.32
2022-09-25T10:00:24.232Z,12.02
2022-09-25T10:03:33.250Z,14.75
2022-09-25T10:06:05.065Z,12.50
2022-09-25T10:08:32.513Z,13.20
2022-09-25T10:10:59.651Z,11.57
2022-09-25T10:13:37.773Z,16.90
2022-09-25T10:16:18.624Z,11.82
2022-09-25T10:19:20.151Z,15.93
2022-09-25T10:21:54.774Z,11.77
2022-09-25T10:24:53.185Z,11.50
2022-09-25T10:27:38.021Z,11.77
2022-09-25T10:30:11.862Z,10.47
2022-09-25T10:36:46.478Z,13.25
2022-09-25T10:39:44.035Z,11.13
2022-09-25T10:42:33.558Z,8.27
2022-09-25T10:56:41.669Z,12.70
2022-09-25T10:59:24.016Z,11.88
2022-09-25T11:01:55.302Z,10.77
2022-09-25T11:08:33.140Z,9.95
2022-09-25T11:11:02.484Z,9.32
2022-09-25T11:13:50.212Z,9.40
2022-09-25T11:16:17.815Z,9.25
2022-09-25T11:18:50.111Z,6.60
2022-09-25T11:21:53.612Z,8.25
2022-09-25T11:24:26.656Z,8.82
2022-09-25T11:27:12.366Z,7.65
2022-09-25T11:32:34.816Z,10.00
2022-09-25T11:35:25.682Z,10.75
2022-09-25T11:38:06.451Z,10.65
2022-09-25T11:41:12.745Z,9.25
2022-09-25T11:43:57.715Z,8.90
2022-09-25T11:46:44.003Z,6.60
2022-09-25T11:49:24.608Z,8.05
2022-09-25T11:51:56.571Z,7.40
2022-09-25T11:54:52.529Z,10.90
2022-09-25T11:57:34.986Z,7.75
2022-09-25T12:00:08.812Z,10.93
2022-09-25T12:02:41.060Z,8.90
2022-09-25T12:05:14.856Z,11.80
2022-09-25T12:07:53.330Z,10.27
2022-09-25T12:10:59.704Z,10.02
2022-09-25T12:13:58.458Z,9.27
2022-09-25T12:16:33.065Z,12.25
2022-09-25T12:19:25.666Z,10.52
2022-09-25T12:22:06.784Z,14.68
2022-09-25T12:24:49.065Z,12.20
2022-09-25T12:27:48.495Z,10.55
2022-09-25T12:30:25.115Z,11.85
2022-09-25T12:33:22.797Z,11.52
2022-09-25T12:36:16.618Z,11.07
2022-09-25T12:38:55.673Z,77.78
2022-09-25T12:41:51.123Z,20.60
2022-09-25T12:44:42.493Z,11.00
2022-09-25T12:47:43.517Z,11.10
2022-09-25T12:50:29.141Z,9.88
2022-09-25T12:53:00.197Z,9.40
2022-09-25T12:55:34.701Z,12.32
2022-09-25T12:58:21.480Z,10.37
2022-09-25T13:00:56.310Z,10.30
2022-09-25T13:03:46.849Z,9.10
2022-09-25T13:06:31.897Z,7.63
2022-09-25T13:09:17.595Z,6.65
2022-09-25T13:11:51.373Z,5.72
2022-09-25T13:14:47.542Z,4.28
2022-09-25T13:19:43.844Z,4.22
2022-09-25T13:22:22.519Z,4.18
2022-09-25T13:24:57.410Z,2.90
2022-09-25T13:27:26.345Z,1.77
2022-09-25T13:30:01.146Z,3.17
2022-09-25T13:32:35.477Z,2.63
2022-09-25T13:35:06.284Z,3.72
2022-09-25T13:37:44.304Z,3.55
2022-09-25T13:40:58.350Z,3.33
2022-09-25T13:43:29.208Z,4.57
2022-09-25T13:46:18.086Z,4.28
2022-09-25T13:48:46.338Z,4.75
2022-09-25T13:51:22.743Z,5.40
2022-09-25T13:54:03.046Z,4.50
2022-09-25T13:56:51.185Z,6.05
2022-09-25T13:59:23.400Z,5.50
2022-09-25T14:02:52.144Z,5.82
2022-09-25T14:05:27.395Z,6.22
2022-09-25T14:08:02.932Z,9.60
2022-09-25T14:10:30.521Z,6.07
2022-09-25T14:12:57.955Z,6.05
2022-09-25T14:15:37.973Z,6.45
2022-09-25T14:18:11.057Z,7.15
2022-09-25T14:20:47.813Z,10.70
2022-09-25T14:23:48.159Z,7.93
2022-09-25T14:26:22.961Z,10.65
2022-09-25T14:28:51.995Z,9.65
2022-09-25T14:31:37.918Z,6.25
2022-09-25T14:34:30.164Z,5.40
2022-09-25T14:37:37.972Z,6.18
2022-09-25T14:40:41.112Z,3.53
2022-09-25T14:43:20.863Z,3.80
2022-09-25T14:46:11.921Z,6.60
2022-09-25T14:48:48.731Z,7.53
2022-09-25T14:51:41.324Z,2.95
2022-09-25T14:54:15.549Z,7.75
2022-09-25T14:56:48.728Z,5.93
2022-09-25T14:59:32.205Z,3.35
2022-09-25T15:02:03.150Z,7.22
2022-09-25T15:04:32.789Z,6.63
2022-09-25T15:07:09.002Z,3.67
2022-09-25T15:09:42.496Z,3.83
2022-09-25T15:12:24.184Z,5.28
2022-09-25T15:15:18.884Z,5.20
2022-09-25T15:17:54.637Z,3.95
2022-09-25T15:20:25.172Z,4.45
2022-09-25T15:23:15.673Z,8.07
2022-09-25T15:25:49.930Z,4.97
2022-09-25T15:28:26.466Z,4.88
2022-09-25T15:31:01.942Z,3.97
2022-09-25T15:33:32.336Z,5.47
2022-09-25T15:36:08.889Z,3.53
2022-09-25T15:38:39.227Z,5.75
2022-09-25T15:41:16.371Z,3.38
2022-09-25T15:43:44.177Z,2.67
2022-09-25T15:46:11.396Z,3.50
2022-09-25T15:48:59.230Z,2.22
2022-09-25T15:51:33.779Z,3.10
2022-09-25T15:54:05.527Z,5.77
2022-09-25T15:56:55.521Z,4.40
2022-09-25T15:59:37.083Z,5.32
2022-09-25T16:02:37.525Z,5.20
2022-09-25T16:05:09.467Z,4.63
2022-09-25T16:07:39.615Z,10.23
2022-09-25T16:10:09.919Z,4.30
2022-09-25T16:12:48.177Z,6.65
2022-09-25T16:15:27.887Z,7.43
2022-09-25T16:18:05.518Z,5.55
2022-09-25T16:20:41.786Z,16.08
2022-09-25T16:23:28.577Z,8.60
2022-09-25T16:25:56.202Z,3.08
2022-09-25T16:28:28.676Z,4.47
2022-09-25T16:31:06.646Z,3.97
2022-09-25T16:33:49.554Z,6.35
2022-09-25T16:36:19.095Z,1.70
2022-09-25T16:39:12.278Z,2.20
2022-09-25T16:41:51.490Z,7.85
2022-09-25T16:44:23.903Z,4.50
2022-09-25T16:46:57.071Z,9.38
2022-09-25T16:49:25.307Z,8.55
2022-09-25T16:51:55.108Z,4.22
2022-09-25T16:54:28.605Z,2.05
2022-09-25T16:56:57.945Z,4.13
2022-09-25T16:59:28.596Z,2.60
2022-09-25T17:02:05.095Z,9.52
2022-09-25T17:04:36.267Z,4.40
2022-09-25T17:07:03.687Z,5.15
2022-09-25T17:09:31.656Z,4.00
2022-09-25T17:12:08.954Z,8.23
2022-09-25T17:14:37.046Z,3.53
2022-09-25T17:17:04.474Z,5.68
2022-09-25T17:19:31.700Z,2.75
2022-09-25T17:21:59.107Z,6.57
2022-09-25T17:24:27.987Z,4.35
2022-09-25T17:26:55.348Z,4.88
2022-09-25T17:29:23.241Z,5.13
2022-09-25T17:31:50.681Z,8.77
2022-09-25T17:34:29.876Z,3.33
2022-09-25T17:39:52.854Z,5.30
2022-09-25T17:42:20.052Z,5.85
2022-09-25T17:44:49.835Z,1.90
2022-09-25T17:47:17.133Z,3.92
2022-09-25T17:49:44.998Z,4.32
2022-09-25T17:52:17.054Z,4.40
2022-09-25T17:54:47.556Z,3.35
2022-09-25T17:57:17.663Z,5.82
2022-09-25T17:59:45.579Z,2.95
2022-09-25T18:02:19.810Z,7.57
2022-09-25T18:04:47.488Z,3.92
2022-09-25T18:07:15.497Z,4.72
2022-09-25T18:09:43.096Z,4.68
2022-09-25T18:12:10.860Z,7.38
2022-09-25T18:14:39.497Z,4.38
2022-09-25T18:17:07.731Z,3.65
2022-09-25T18:19:54.245Z,7.47
2022-09-25T18:26:31.057Z,3.97
2022-09-25T18:32:50.204Z,3.20
2022-09-25T18:39:01.414Z,3.83
2022-09-25T18:45:22.323Z,7.18
2022-09-25T18:51:56.410Z,4.18
2022-09-25T19:47:20.631Z,11.07
2022-09-25T19:49:47.902Z,11.02
2022-09-25T19:52:15.136Z,5.55
2022-09-25T19:54:42.480Z,6.78
2022-09-25T19:57:10.014Z,6.00
2022-09-25T19:59:37.929Z,5.28
2022-09-25T20:02:06.146Z,2.63
2022-09-25T20:04:34.757Z,3.85
2022-09-25T20:07:01.994Z,8.60
2022-09-25T20:09:29.412Z,3.45
2022-09-25T20:11:56.757Z,6.40
2022-09-25T20:14:27.412Z,5.60
2022-09-25T20:16:56.117Z,5.15
2022-09-25T20:19:23.409Z,7.88
2022-09-25T20:21:53.306Z,7.75
2022-09-25T20:24:20.679Z,3.88
2022-09-25T20:26:48.259Z,4.70
2022-09-25T20:29:17.386Z,3.95
2022-09-25T20:31:46.134Z,7.15
2022-09-25T20:34:18.970Z,9.50
2022-09-25T20:36:49.359Z,4.78
2022-09-25T20:39:20.770Z,2.88
2022-09-25T20:41:49.864Z,6.53
2022-09-25T20:44:17.439Z,12.18
2022-09-25T20:46:45.197Z,5.00
2022-09-25T20:49:13.574Z,9.80
2022-09-25T20:51:41.655Z,6.75
2022-09-25T20:54:10.187Z,2.00
2022-09-25T20:56:45.761Z,2.85
2022-09-25T20:59:15.569Z,4.78
2022-09-25T21:01:42.989Z,3.83
2022-09-25T21:04:10.499Z,6.30
2022-09-25T21:06:40.539Z,3.35
2022-09-25T21:09:18.765Z,4.65
2022-09-25T21:11:45.897Z,4.68
2022-09-25T21:14:19.817Z,8.18
2022-09-25T21:16:48.159Z,4.93
2022-09-25T21:19:17.156Z,10.30
2022-09-25T21:21:45.016Z,12.30
2022-09-25T21:24:17.502Z,12.38
2022-09-25T21:26:45.605Z,4.97
2022-09-25T21:29:16.109Z,4.43
2022-09-25T21:31:49.413Z,7.25
2022-09-25T21:34:17.162Z,15.55
2022-09-25T21:36:44.738Z,5.80
2022-09-25T21:39:13.558Z,5.10
2022-09-25T21:41:40.759Z,3.25
2022-09-25T21:44:13.501Z,5.18
2022-09-25T21:46:41.598Z,6.32
2022-09-25T21:49:14.269Z,14.38
2022-09-25T21:51:43.589Z,6.65
2022-09-25T21:54:12.332Z,5.80
2022-09-25T21:56:39.898Z,19.80
2022-09-25T21:59:09.075Z,8.48
2022-09-25T22:01:39.813Z,10.50
2022-09-25T22:04:08.815Z,6.57
2022-09-25T22:06:39.439Z,7.63
2022-09-25T22:09:14.186Z,7.70
2022-09-25T22:11:42.809Z,11.23
2022-09-25T22:14:14.913Z,3.50
2022-09-25T22:16:44.660Z,10.38
2022-09-25T22:19:24.987Z,4.90
2022-09-25T22:21:54.058Z,8.15
2022-09-25T22:24:22.914Z,3.65
2022-09-25T22:26:51.894Z,2.47
2022-09-25T22:29:21.067Z,3.40
2022-09-25T22:31:49.065Z,1.05
2022-09-25T22:34:28.281Z,2.47
2022-09-25T22:36:59.898Z,2.72
2022-09-25T22:39:28.525Z,3.33
2022-09-25T22:41:57.273Z,4.93
2022-09-25T22:44:25.125Z,2.38
2022-09-25T22:46:52.528Z,3.92
2022-09-25T22:49:20.052Z,7.55
2022-09-25T22:51:47.660Z,9.00
2022-09-25T22:54:15.696Z,3.75
2022-09-25T22:56:43.508Z,1.90
2022-09-25T22:59:13.943Z,2.28
2022-09-25T23:01:52.335Z,5.72
2022-09-25T23:04:22.383Z,3.50
2022-09-25T23:06:52.337Z,3.63
2022-09-25T23:09:26.101Z,4.15
2022-09-25T23:11:55.658Z,7.05
2022-09-25T23:14:26.245Z,5.45
2022-09-25T23:16:54.556Z,31.90
2022-09-25T23:19:23.291Z,2.17
2022-09-25T23:21:52.842Z,2.70
2022-09-25T23:24:21.185Z,2.03
2022-09-25T23:26:48.819Z,2.63
2022-09-25T23:29:18.376Z,5.47
2022-09-25T23:31:47.315Z,7.18
2022-09-25T23:34:15.514Z,5.65
2022-09-25T23:36:43.391Z,5.50
2022-09-25T23:39:16.114Z,3.63
2022-09-25T23:41:43.575Z,2.53
2022-09-25T23:44:11.836Z,3.45
2022-09-25T23:46:41.960Z,4.53
2022-09-25T23:49:09.786Z,3.30
2022-09-25T23:51:37.521Z,3.22
2022-09-25T23:54:04.995Z,17.92
2022-09-25T23:56:34.366Z,3.03
2022-09-25T23:59:03.136Z,3.92
